Cap Castillo — A8PI5 — position and weather

sailwx.info

Track history (hours):
 
Tides and Currents Weather Stations Pressure Air Temp Water Temp Dewpoint Dewpoint Depression Visibility Wind Speed Wind Dir Waves Ship Positions

Cap Castillo

Last reported at 2015-Aug-31 11:22 UTC. Time now 2015-Sep-04 07:55 UTC.
Position N 29°55' W 089°55'.

Length 215 m; draft 8.8 m.

Type: Ship. MMSI: 636091558.

Date/timePositionNaut miles runAvg speedWind from/ knotsBaromVisibWave heightAir tempDewpointWater temp
2015-Aug-31 11:22N 29°55' W 089°55'9 0.6
2015-Aug-30 19:32N 29°55' W 090°05'242 8.1
2015-Aug-29 13:33N 29°20' W 094°41'1111.3
2015-Aug-29 12:33N 29°28' W 094°51'1111.1
2015-Aug-29 11:33N 29°37' W 094°59'1 1.2
2015-Aug-29 10:29N 29°37' W 095°00'0 0.0
2015-Aug-29 09:32N 29°37' W 095°00'0 0.0
2015-Aug-29 08:33N 29°37' W 095°00'0 0.0
2015-Aug-29 07:32N 29°37' W 095°00'0 0.0
2015-Aug-29 06:33N 29°37' W 095°00'0 0.0
2015-Aug-29 05:34N 29°37' W 095°00'0 0.0
2015-Aug-29 04:27N 29°37' W 095°00'0 0.0
2015-Aug-29 03:33N 29°37' W 095°00'0 0.0
2015-Aug-29 02:28N 29°37' W 095°00'0 0.0
2015-Aug-29 01:33N 29°37' W 095°00'0 0.0
2015-Aug-29 00:29N 29°37' W 095°00'0 0.0
2015-Aug-28 23:31N 29°37' W 095°00'0 0.0
2015-Aug-28 22:32N 29°37' W 095°00'0 0.0
2015-Aug-28 21:31N 29°37' W 095°00'0 0.0
2015-Aug-28 20:33N 29°37' W 095°00'0 0.0
2015-Aug-28 19:30N 29°37' W 095°00'0 0.0
2015-Aug-28 18:33N 29°37' W 095°00'0 0.4
2015-Aug-28 17:33N 29°37' W 094°60'9 8.7
2015-Aug-28 16:33N 29°31' W 094°53'1211.9
2015-Aug-28 15:34N 29°21' W 094°46'  
Track history (hours):
 
Tides and Currents Weather Stations Pressure Air Temp Water Temp Dewpoint Dewpoint Depression Visibility Wind Speed Wind Dir Waves Ship Positions

Cap Castillo

Last reported at 2015-Aug-31 11:22 UTC. Time now 2015-Sep-04 07:55 UTC.
Position N 29°55' W 089°55'.

Length 215 m; draft 8.8 m.

Type: Ship. MMSI: 636091558.

Date/timePositionNaut miles runAvg speedWind from/ knotsBaromVisibWave heightAir tempDewpointWater temp
2015-Aug-31 11:22N 29°55' W 089°55'9 0.6
2015-Aug-30 19:32N 29°55' W 090°05'242 8.1
2015-Aug-29 13:33N 29°20' W 094°41'1111.3
2015-Aug-29 12:33N 29°28' W 094°51'1111.1
2015-Aug-29 11:33N 29°37' W 094°59'1 1.2
2015-Aug-29 10:29N 29°37' W 095°00'0 0.0
2015-Aug-29 09:32N 29°37' W 095°00'0 0.0
2015-Aug-29 08:33N 29°37' W 095°00'0 0.0
2015-Aug-29 07:32N 29°37' W 095°00'0 0.0
2015-Aug-29 06:33N 29°37' W 095°00'0 0.0
2015-Aug-29 05:34N 29°37' W 095°00'0 0.0
2015-Aug-29 04:27N 29°37' W 095°00'0 0.0
2015-Aug-29 03:33N 29°37' W 095°00'0 0.0
2015-Aug-29 02:28N 29°37' W 095°00'0 0.0
2015-Aug-29 01:33N 29°37' W 095°00'0 0.0
2015-Aug-29 00:29N 29°37' W 095°00'0 0.0
2015-Aug-28 23:31N 29°37' W 095°00'0 0.0
2015-Aug-28 22:32N 29°37' W 095°00'0 0.0
2015-Aug-28 21:31N 29°37' W 095°00'0 0.0
2015-Aug-28 20:33N 29°37' W 095°00'0 0.0
2015-Aug-28 19:30N 29°37' W 095°00'0 0.0
2015-Aug-28 18:33N 29°37' W 095°00'0 0.4
2015-Aug-28 17:33N 29°37' W 094°60'9 8.7
2015-Aug-28 16:33N 29°31' W 094°53'1211.9
2015-Aug-28 15:34N 29°21' W 094°46'  

Dump ship's entire track history